Time;durP1;ratioP1;P1;durP2;ratioP2;P2;SDS_P1;SDS_P2;PMS_P1;PMS_P2;Temp;Humidity;BMP_temperature;BMP_pressure;BME280_temperature;BME280_humidity;BME280_pressure;Samples;Min_cycle;Max_cycle;Signal;HPM_P1;HPM_P2
2023/02/03 00:01:48;;;;;;;;;;;;;;;2.34;60.44;94995.47;5033996;28;19924;-78
2023/02/03 00:04:14;;;;;;;;;;;;;;;2.50;59.30;95003.25;5033642;28;20315;-78
2023/02/03 00:06:40;;;;;;;;;;;;;;;2.46;59.86;95007.72;5032494;28;19916;-78
2023/02/03 00:09:05;;;;;;;;;;;;;;;2.43;59.94;95013.00;5015958;28;20312;-78
2023/02/03 00:11:30;;;;;;;;;;;;;;;2.40;60.49;95003.72;5033781;28;19928;-78
2023/02/03 00:36:17;;;;;;;5.18;3.20;;;;;;;2.40;61.71;95001.16;5148926;27;20385;-74
2023/02/03 00:38:43;;;;;;;5.68;3.58;;;;;;;2.28;62.70;95013.72;5149296;27;20047;-74
2023/02/03 00:41:08;;;;;;;4.55;2.97;;;;;;;2.37;63.06;95044.06;5138820;27;20034;-74
2023/02/03 00:43:34;;;;;;;4.93;3.25;;;;;;;2.24;63.68;95043.78;5140565;27;20027;-74
2023/02/03 00:45:59;;;;;;;4.53;3.00;;;;;;;2.24;64.11;95041.22;5094965;27;20045;-74
2023/02/03 00:48:25;;;;;;;7.65;4.93;;;;;;;1.68;64.25;94960.13;5110811;27;20031;-74
2023/02/03 00:50:50;;;;;;;5.63;3.47;;;;;;;1.72;64.14;94979.56;5124995;28;20031;-75
2023/02/03 00:53:15;;;;;;;6.80;4.05;;;;;;;1.60;64.65;94965.59;5123276;27;20400;-74
2023/02/03 00:55:44;;;;;;;4.82;3.55;;;;;;;1.56;64.71;94961.50;5129288;27;20069;-74
2023/02/03 00:58:10;;;;;;;4.70;3.20;;;;;;;1.67;65.36;94991.75;5110051;28;20105;-74
2023/02/03 01:00:35;;;;;;;5.70;4.65;;;;;;;1.96;65.72;95060.44;5108663;27;20035;-75
2023/02/03 01:03:01;;;;;;;5.50;4.07;;;;;;;1.89;66.51;95051.34;5095547;28;20515;-74
2023/02/03 01:05:26;;;;;;;4.53;3.50;;;;;;;1.36;65.73;94959.81;5093940;27;20050;-75
2023/02/03 01:07:51;;;;;;;5.85;3.72;;;;;;;1.98;65.53;95055.25;5138332;27;20096;-74
2023/02/03 01:10:17;;;;;;;5.85;3.85;;;;;;;1.90;65.69;95070.16;5120545;27;20503;-74
2023/02/03 01:12:42;;;;;;;5.05;3.80;;;;;;;1.84;65.74;95047.34;5093823;27;20085;-74
2023/02/03 01:15:11;;;;;;;4.97;3.55;;;;;;;1.57;66.80;95060.47;5120334;27;20108;-74
2023/02/03 01:17:36;;;;;;;4.60;3.33;;;;;;;1.24;67.17;94984.25;5109000;27;20117;-75
2023/02/03 01:20:02;;;;;;;4.22;2.85;;;;;;;1.77;67.84;95080.91;5143860;27;20042;-75
2023/02/03 01:22:30;;;;;;;4.50;2.67;;;;;;;1.51;68.72;95053.06;5111645;27;20027;-74
2023/02/03 01:24:56;;;;;;;3.40;2.70;;;;;;;1.20;69.52;95008.31;5125851;27;20043;-75
2023/02/03 01:27:21;;;;;;;4.07;2.72;;;;;;;1.68;68.18;95072.81;5126102;27;20076;-75
2023/02/03 01:29:47;;;;;;;4.00;2.80;;;;;;;1.70;68.07;95066.72;5108319;27;20062;-75
2023/02/03 01:32:12;;;;;;;3.45;2.47;;;;;;;1.64;67.41;95068.72;5103239;27;20504;-74
2023/02/03 01:34:38;;;;;;;3.47;2.28;;;;;;;1.11;67.00;94966.06;5143752;27;20099;-74
2023/02/03 01:37:03;;;;;;;2.95;1.95;;;;;;;1.79;66.00;95058.63;5111701;27;20055;-74
2023/02/03 01:39:29;;;;;;;4.47;2.13;;;;;;;1.50;66.03;95025.78;5129724;27;20046;-75
2023/02/03 01:41:54;;;;;;;2.58;1.90;;;;;;;1.64;65.42;95054.19;5110911;27;20062;-75
2023/02/03 01:44:39;;;;;;;3.47;2.03;;;;;;;1.77;64.10;95064.72;5095422;27;20233;-74
2023/02/03 01:47:37;;;;;;;3.03;2.05;;;;;;;1.68;65.28;95081.34;5129299;27;20019;-74
2023/02/03 01:50:08;;;;;;;2.72;1.77;;;;;;;1.61;64.60;95079.91;5131276;27;20031;-75
2023/02/03 01:52:33;;;;;;;3.90;1.90;;;;;;;1.61;64.52;95094.47;5122995;27;20019;-74
2023/02/03 01:54:59;;;;;;;3.13;1.80;;;;;;;1.59;64.44;95091.13;5096571;27;20347;-75
2023/02/03 01:57:37;;;;;;;2.45;1.63;;;;;;;1.59;63.91;95071.50;5114038;27;20533;-74
2023/02/03 02:00:04;;;;;;;2.45;1.75;;;;;;;1.65;64.10;95089.16;5094547;27;20038;-74
2023/02/03 02:02:30;;;;;;;2.20;1.60;;;;;;;0.91;63.73;94967.78;5127505;27;20543;-75
2023/02/03 02:05:10;;;;;;;2.58;1.52;;;;;;;1.59;63.79;95081.75;5094246;27;20038;-74
2023/02/03 02:07:36;;;;;;;2.72;1.80;;;;;;;1.47;63.56;95066.88;5098751;27;20043;-74
2023/02/03 02:10:01;;;;;;;3.95;1.98;;;;;;;1.61;64.40;95090.16;5112441;27;20667;-75
2023/02/03 02:12:27;;;;;;;2.85;1.83;;;;;;;1.16;64.46;95021.31;5114996;27;20328;-75
2023/02/03 02:14:52;;;;;;;2.45;1.77;;;;;;;1.12;63.81;95020.63;5105212;27;20046;-74
2023/02/03 02:17:36;;;;;;;3.85;2.20;;;;;;;1.61;63.63;95092.72;5095843;27;20054;-74
2023/02/03 02:21:09;;;;;;;2.90;2.17;;;;;;;1.40;64.33;95061.22;5128772;27;20031;-74
2023/02/03 02:24:07;;;;;;;2.63;1.90;;;;;;;1.43;63.49;95050.84;5085517;27;20057;-74
2023/02/03 02:26:53;;;;;;;2.88;2.08;;;;;;;1.60;64.66;95093.63;5082187;27;20034;-75
2023/02/03 02:29:40;;;;;;;2.88;2.20;;;;;;;1.64;63.89;95097.72;5128617;27;20050;-75
2023/02/03 02:32:47;;;;;;;3.70;2.35;;;;;;;1.54;64.28;95084.50;5111345;27;20034;-75
2023/02/03 02:35:33;;;;;;;3.10;2.25;;;;;;;1.67;63.42;95097.59;5087664;28;20067;-74
2023/02/03 02:38:01;;;;;;;3.25;2.30;;;;;;;1.61;64.29;95102.97;5114591;27;20051;-75
2023/02/03 02:40:32;;;;;;;3.83;2.40;;;;;;;0.94;63.51;95000.91;5125651;27;20038;-74
2023/02/03 02:43:04;;;;;;;3.15;2.10;;;;;;;1.53;63.41;95108.44;5098064;27;20040;-74
2023/02/03 02:45:33;;;;;;;3.20;2.30;;;;;;;1.43;63.29;95096.09;5124597;27;20087;-75
2023/02/03 02:48:03;;;;;;;3.47;2.65;;;;;;;1.32;64.21;95073.50;5110874;27;20031;-74
2023/02/03 02:50:30;;;;;;;4.03;3.00;;;;;;;1.45;63.44;95068.69;5096403;27;20031;-74
2023/02/03 02:52:56;;;;;;;4.15;2.70;;;;;;;1.09;63.28;95015.63;5091743;27;20034;-75
2023/02/03 02:55:23;;;;;;;2.97;2.20;;;;;;;1.08;62.56;95014.78;5126498;27;20544;-75
2023/02/03 02:57:50;;;;;;;4.45;3.15;;;;;;;1.55;62.53;95093.81;5094663;27;20029;-75
2023/02/03 03:00:15;;;;;;;5.32;3.05;;;;;;;1.46;61.85;95101.09;5097801;27;20038;-75
2023/02/03 03:02:41;;;;;;;4.03;2.85;;;;;;;1.43;62.47;95096.91;5125997;27;20496;-75
2023/02/03 03:05:07;;;;;;;4.05;2.88;;;;;;;1.42;61.51;95109.78;5130339;27;20027;-75
2023/02/03 03:07:36;;;;;;;4.97;2.45;;;;;;;1.19;61.74;95078.31;5107095;27;20025;-74
2023/02/03 03:10:07;;;;;;;3.50;2.70;;;;;;;0.75;61.35;95001.66;5104821;27;20400;-74
2023/02/03 03:12:37;;;;;;;4.22;2.97;;;;;;;1.43;61.33;95124.25;5106438;27;20480;-74
2023/02/03 03:15:09;;;;;;;3.35;2.08;;;;;;;1.29;60.88;95124.84;5103889;27;20111;-74
2023/02/03 03:17:38;;;;;;;;;;;;;;;1.41;60.62;95126.03;5129270;27;20023;-74
2023/02/03 03:20:06;;;;;;;3.47;2.33;;;;;;;1.18;61.12;95111.66;5128388;27;19919;-75
2023/02/03 03:22:38;;;;;;;3.63;2.40;;;;;;;1.26;61.01;95125.78;5125731;27;20114;-75
2023/02/03 03:25:13;;;;;;;3.60;2.40;;;;;;;0.78;60.43;95049.31;5110480;27;20023;-75
2023/02/03 03:27:41;;;;;;;2.95;2.20;;;;;;;0.86;60.64;95070.28;5110510;27;20041;-75
2023/02/03 03:30:11;;;;;;;5.57;2.55;;;;;;;1.30;61.05;95144.41;5110362;27;20109;-75
2023/02/03 03:32:36;;;;;;;6.38;3.78;;;;;;;1.20;61.25;95117.50;5092170;27;20058;-75
2023/02/03 03:35:02;;;;;;;4.70;2.65;;;;;;;1.25;60.09;95123.28;5109613;27;20059;-75
2023/02/03 03:37:34;;;;;;;3.00;2.58;;;;;;;1.33;60.60;95150.22;5127694;27;20098;-75
2023/02/03 03:40:05;;;;;;;4.30;3.60;;;;;;;0.72;60.73;95063.16;5125437;27;20039;-75
2023/02/03 03:42:37;;;;;;;3.15;2.40;;;;;;;0.72;60.11;95060.63;5109385;27;20023;-75
2023/02/03 03:45:24;;;;;;;4.07;2.53;;;;;;;1.44;59.61;95154.91;5109477;28;20602;-75
2023/02/03 03:47:56;;;;;;;3.65;2.30;;;;;;;1.36;60.11;95158.69;5111748;28;20089;-75
2023/02/03 03:50:27;;;;;;;3.17;2.25;;;;;;;1.32;59.41;95132.38;5119332;27;20031;-75
2023/02/03 03:52:53;;;;;;;2.92;2.10;;;;;;;1.19;59.38;95119.25;5095535;27;20102;-75
2023/02/03 03:55:19;;;;;;;3.33;2.08;;;;;;;1.33;59.53;95146.84;5096490;27;20057;-75
2023/02/03 03:57:52;;;;;;;2.95;2.15;;;;;;;1.23;59.25;95119.97;5113739;27;20048;-75
2023/02/03 04:00:18;;;;;;;2.85;2.05;;;;;;;1.41;59.52;95143.97;5095533;28;20031;-75
2023/02/03 04:02:45;;;;;;;4.15;2.80;;;;;;;1.54;59.61;95163.03;5076376;28;20031;-75
2023/02/03 04:05:11;;;;;;;4.35;2.55;;;;;;;1.43;60.30;95172.91;5076576;28;20035;-75
2023/02/03 04:07:43;;;;;;;5.90;3.45;;;;;;;1.52;59.43;95170.78;5076213;28;20024;-75
2023/02/03 04:10:33;;;;;;;4.22;2.88;;;;;;;1.52;59.64;95164.84;5092670;28;20046;-75
2023/02/03 04:12:58;;;;;;;2.83;2.22;;;;;;;1.48;59.22;95168.44;5081471;28;20088;-75
2023/02/03 04:15:24;;;;;;;3.38;2.40;;;;;;;1.61;60.01;95177.25;5130511;27;20039;-75
2023/02/03 04:17:49;;;;;;;3.95;2.60;;;;;;;1.52;59.37;95160.53;5079893;28;20032;-75
2023/02/03 04:20:15;;;;;;;4.97;4.18;;;;;;;1.27;59.04;95121.50;5093147;28;20028;-75
2023/02/03 04:22:40;;;;;;;5.55;3.30;;;;;;;1.56;60.02;95185.13;5093314;28;20032;-75
2023/02/03 04:25:06;;;;;;;4.78;3.38;;;;;;;1.65;59.63;95183.91;5093067;28;20123;-75
2023/02/03 04:27:33;;;;;;;3.00;2.40;;;;;;;1.65;59.85;95194.16;5076307;28;20453;-76
2023/02/03 04:29:58;;;;;;;4.00;2.67;;;;;;;1.55;60.41;95182.63;5097358;28;20023;-75
2023/02/03 04:32:24;;;;;;;2.72;2.20;;;;;;;1.43;60.61;95183.16;5111978;28;20407;-75
2023/02/03 04:34:49;;;;;;;3.00;2.05;;;;;;;1.52;60.24;95198.13;5075925;28;20091;-75
2023/02/03 04:37:15;;;;;;;5.05;3.00;;;;;;;1.49;60.71;95190.56;5093858;28;20499;-75
2023/02/03 04:39:40;;;;;;;4.88;2.65;;;;;;;1.29;60.40;95158.13;5076070;28;20031;-75
2023/02/03 04:42:06;;;;;;;4.43;3.10;;;;;;;1.50;60.16;95200.72;5092973;28;20408;-75
2023/02/03 04:44:31;;;;;;;5.03;2.83;;;;;;;1.49;60.27;95198.25;5076081;28;20036;-75
2023/02/03 04:46:57;;;;;;;3.20;2.60;;;;;;;1.46;60.59;95206.88;5084734;28;20038;-75
2023/02/03 04:49:22;;;;;;;6.85;4.00;;;;;;;1.52;60.31;95203.25;5092812;28;20424;-75
2023/02/03 04:51:48;;;;;;;4.22;3.30;;;;;;;1.53;60.76;95202.34;5075991;28;20051;-75
2023/02/03 04:54:13;;;;;;;4.00;2.92;;;;;;;1.52;60.61;95233.97;5092960;28;20089;-75
2023/02/03 04:56:39;;;;;;;3.60;2.70;;;;;;;1.44;60.96;95223.19;5092819;28;20039;-75
2023/02/03 04:59:04;;;;;;;3.00;2.60;;;;;;;0.79;61.28;95125.16;5075864;28;20043;-75
2023/02/03 05:01:30;;;;;;;4.00;2.60;;;;;;;0.55;60.71;95099.66;5092398;28;20030;-75
2023/02/03 05:03:55;;;;;;;3.85;2.65;;;;;;;1.06;60.20;95170.13;5114646;28;20038;-75
2023/02/03 05:06:23;;;;;;;3.88;2.60;;;;;;;1.39;61.06;95227.69;5096040;28;20019;-75
2023/02/03 05:08:48;;;;;;;4.57;2.70;;;;;;;1.41;60.77;95236.97;5092165;28;20040;-75
2023/02/03 05:11:14;;;;;;;4.30;2.70;;;;;;;1.45;60.79;95240.22;5094017;28;20016;-74
2023/02/03 05:13:39;;;;;;;5.57;3.50;;;;;;;1.40;61.45;95249.84;5080727;28;20409;-75
2023/02/03 05:16:05;;;;;;;5.68;4.03;;;;;;;1.06;61.04;95194.88;5121581;27;20019;-75
2023/02/03 05:18:31;;;;;;;4.03;3.15;;;;;;;1.20;60.89;95205.38;5116707;27;20027;-74
2023/02/03 05:20:56;;;;;;;10.32;6.57;;;;;;;1.40;60.62;95249.84;5112901;28;20034;-75
2023/02/03 05:23:22;;;;;;;5.70;3.28;;;;;;;1.44;60.17;95253.94;5082477;27;20031;-75
2023/02/03 05:25:47;;;;;;;4.22;3.05;;;;;;;1.25;60.73;95235.91;5095728;28;20029;-74
2023/02/03 05:28:13;;;;;;;4.22;2.80;;;;;;;0.98;60.30;95177.25;5079115;28;20032;-75
2023/02/03 05:30:38;;;;;;;3.83;2.90;;;;;;;1.49;60.37;95257.16;5089240;28;20024;-75
2023/02/03 05:33:03;;;;;;;4.78;3.40;;;;;;;1.36;60.02;95223.50;5078656;28;20402;-75
2023/02/03 05:35:29;;;;;;;4.03;2.50;;;;;;;1.52;60.52;95246.78;5104277;27;20051;-74
2023/02/03 05:37:54;;;;;;;5.63;4.03;;;;;;;0.60;60.46;95118.19;5113132;28;20504;-74
2023/02/03 05:43:04;;;;;;;3.92;2.97;;;;;;;1.41;60.93;95242.09;5101738;28;20054;-74
2023/02/03 05:45:30;;;;;;;6.88;3.65;;;;;;;1.27;60.80;95229.00;5124544;27;20481;-74
2023/02/03 05:47:55;;;;;;;4.57;2.88;;;;;;;0.78;60.28;95146.50;5131362;27;20042;-74
2023/02/03 05:50:21;;;;;;;4.03;2.97;;;;;;;1.48;60.38;95255.50;5097380;27;20031;-74
2023/02/03 05:52:47;;;;;;;5.60;4.05;;;;;;;1.45;60.53;95260.72;5109280;27;20031;-74
2023/02/03 05:55:13;;;;;;;6.82;4.00;;;;;;;0.98;60.90;95219.94;5115099;27;20040;-74
2023/02/03 05:57:38;;;;;;;9.10;5.78;;;;;;;1.39;60.54;95248.16;5114174;27;20676;-74
2023/02/03 06:00:06;;;;;;;6.82;4.05;;;;;;;1.38;60.85;95252.44;5129467;27;20031;-74
2023/02/03 06:02:31;;;;;;;3.65;2.90;;;;;;;1.16;60.93;95262.69;5126466;27;20270;-75
2023/02/03 06:04:57;;;;;;;4.55;2.88;;;;;;;1.16;60.86;95246.50;5094209;27;20027;-75
2023/02/03 06:07:22;;;;;;;3.95;2.90;;;;;;;0.73;60.59;95190.16;5097259;27;20023;-73
2023/02/03 06:09:48;;;;;;;5.05;3.40;;;;;;;1.20;60.62;95271.94;5102951;27;20036;-74
2023/02/03 06:12:14;;;;;;;4.25;3.28;;;;;;;1.10;60.82;95252.69;5091169;27;20031;-74
2023/02/03 06:14:40;;;;;;;4.97;3.35;;;;;;;1.01;60.41;95245.38;5090298;28;20046;-75
2023/02/03 06:17:05;;;;;;;4.00;2.97;;;;;;;1.11;60.82;95272.28;5093845;28;20024;-75
2023/02/03 06:19:31;;;;;;;5.25;2.88;;;;;;;1.24;60.55;95272.66;5129409;27;20031;-75
2023/02/03 06:21:56;;;;;;;6.47;4.22;;;;;;;1.15;60.54;95273.84;5097284;27;20023;-75
2023/02/03 06:24:21;;;;;;;8.63;5.20;;;;;;;0.98;60.54;95238.66;5114202;27;20046;-75
2023/02/03 06:26:47;;;;;;;9.23;5.20;;;;;;;1.17;60.95;95276.31;5096457;27;20412;-75
2023/02/03 06:29:15;;;;;;;5.78;3.83;;;;;;;0.95;60.24;95227.69;5109425;28;20520;-75
2023/02/03 06:31:40;;;;;;;6.65;4.07;;;;;;;1.23;59.91;95279.50;5111475;27;20072;-75
2023/02/03 06:34:06;;;;;;;5.40;3.00;;;;;;;1.25;59.60;95287.09;5075672;28;20027;-75
2023/02/03 06:36:31;;;;;;;5.72;3.70;;;;;;;1.27;59.93;95281.03;5098013;27;20510;-75
2023/02/03 06:38:58;;;;;;;6.60;3.65;;;;;;;1.33;59.72;95285.06;5091638;28;20028;-75
2023/02/03 06:41:27;;;;;;;6.22;3.80;;;;;;;1.39;60.04;95282.25;5077240;28;20043;-75
2023/02/03 06:43:53;;;;;;;6.05;3.50;;;;;;;1.34;59.37;95277.34;5112906;27;20035;-75
2023/02/03 06:46:18;;;;;;;4.05;3.28;;;;;;;1.37;58.77;95284.06;5119864;27;20020;-75
2023/02/03 06:48:43;;;;;;;5.95;3.33;;;;;;;1.38;59.44;95293.41;5106710;27;20088;-75
2023/02/03 06:51:09;;;;;;;8.90;3.80;;;;;;;1.21;58.60;95258.22;5117405;27;20539;-74
2023/02/03 06:53:34;;;;;;;18.58;11.98;;;;;;;1.41;58.69;95289.91;5094782;27;20080;-75
2023/02/03 06:56:01;;;;;;;7.25;5.50;;;;;;;1.49;57.88;95305.78;5092426;28;20035;-75
2023/02/03 06:58:26;;;;;;;6.28;3.78;;;;;;;1.57;57.35;95278.16;5094432;28;20072;-74
2023/02/03 07:00:55;;;;;;;6.00;4.47;;;;;;;1.32;57.82;95253.53;5077367;28;20027;-74
2023/02/03 07:03:20;;;;;;;5.13;3.85;;;;;;;1.56;57.65;95296.97;5095351;28;20039;-75
2023/02/03 07:05:46;;;;;;;6.00;2.90;;;;;;;1.10;57.42;95230.50;5093761;28;20028;-75
2023/02/03 07:08:11;;;;;;;3.85;3.17;;;;;;;1.56;58.00;95296.97;5077458;28;20024;-74
2023/02/03 07:10:36;;;;;;;6.43;3.10;;;;;;;1.58;56.91;95309.72;5112809;28;20445;-74
2023/02/03 07:13:03;;;;;;;4.05;2.35;;;;;;;1.15;57.44;95248.25;5094296;28;20023;-74
2023/02/03 07:15:29;;;;;;;3.28;2.50;;;;;;;1.07;57.10;95212.72;5094361;28;20036;-74
2023/02/03 07:17:54;;;;;;;4.28;2.80;;;;;;;1.57;57.48;95301.22;5077100;28;20020;-74
2023/02/03 07:20:21;;;;;;;4.22;2.40;;;;;;;1.56;57.00;95296.97;5077237;28;20035;-74
2023/02/03 07:22:51;;;;;;;3.30;2.60;;;;;;;1.04;56.95;95207.72;5077028;28;20020;-74
2023/02/03 07:25:16;;;;;;;4.50;2.40;;;;;;;2.09;55.16;95309.34;5077274;28;20031;-74
2023/02/03 07:27:42;;;;;;;4.10;2.55;;;;;;;2.09;55.67;95317.03;5093784;28;20027;-74
2023/02/03 07:30:08;;;;;;;4.25;2.67;;;;;;;1.75;54.66;95245.81;5076994;28;20436;-74
2023/02/03 07:32:33;;;;;;;4.78;2.95;;;;;;;2.40;54.34;95323.44;5093815;28;20020;-74
2023/02/03 07:35:00;;;;;;;7.60;2.90;;;;;;;3.28;51.71;95328.88;5076205;28;20436;-75
2023/02/03 07:37:25;;;;;;;4.05;2.53;;;;;;;4.19;48.78;95333.13;5093886;28;20030;-75
2023/02/03 07:39:51;;;;;;;3.35;2.60;;;;;;;3.90;48.60;95256.59;5076761;28;20040;-75
2023/02/03 07:42:16;;;;;;;2.75;2.20;;;;;;;4.24;48.68;95281.47;5076701;28;20024;-75
2023/02/03 07:44:42;;;;;;;3.03;2.20;;;;;;;5.33;46.29;95338.41;5076688;28;20051;-75
2023/02/03 07:47:07;;;;;;;2.45;1.85;;;;;;;4.87;45.10;95239.59;5093636;28;20030;-75
2023/02/03 07:49:33;;;;;;;7.40;2.20;;;;;;;4.18;46.98;95261.19;5076639;28;20040;-75
2023/02/03 07:51:58;;;;;;;3.60;2.30;;;;;;;5.85;42.81;95234.16;5076649;28;20042;-74
2023/02/03 07:54:24;;;;;;;3.03;2.20;;;;;;;8.39;39.35;95326.19;5110397;28;20481;-75
2023/02/03 07:56:49;;;;;;;3.42;2.28;;;;;;;8.10;38.32;95259.94;5093485;28;20081;-75
2023/02/03 07:59:16;;;;;;;2.67;1.85;;;;;;;9.55;35.79;95275.03;5093435;28;20035;-75
2023/02/03 08:01:41;;;;;;;2.60;2.00;;;;;;;10.83;34.04;95302.88;5093410;28;20023;-75
2023/02/03 08:04:07;;;;;;;2.72;1.92;;;;;;;11.56;32.35;95314.56;5076404;28;20043;-75
2023/02/03 08:06:33;;;;;;;3.80;1.90;;;;;;;11.64;31.44;95252.31;5093432;28;20484;-75
2023/02/03 08:08:58;;;;;;;3.33;1.90;;;;;;;12.74;30.19;95307.63;5110450;28;20070;-75
2023/02/03 08:11:24;;;;;;;2.83;2.25;;;;;;;11.56;32.01;95305.00;5093239;28;20480;-75
2023/02/03 08:13:49;;;;;;;2.80;1.95;;;;;;;11.73;30.97;95245.56;5076171;28;20035;-75
2023/02/03 08:16:15;;;;;;;2.88;2.00;;;;;;;11.00;33.21;95297.22;5110129;28;20088;-76
2023/02/03 08:18:40;;;;;;;4.18;2.63;;;;;;;9.07;35.27;95252.47;5076310;28;20027;-75
2023/02/03 08:21:06;;;;;;;3.70;2.55;;;;;;;7.83;37.86;95256.47;5076257;28;20038;-75
2023/02/03 08:23:31;;;;;;;9.18;5.95;;;;;;;7.96;38.33;95322.94;5110018;28;20027;-75
2023/02/03 08:25:57;;;;;;;4.82;2.85;;;;;;;7.37;39.85;95328.38;5093015;28;20027;-75
2023/02/03 08:28:22;;;;;;;4.97;3.13;;;;;;;6.85;40.29;95264.38;5093176;28;20027;-75
2023/02/03 08:30:48;;;;;;;20.15;12.77;;;;;;;6.84;40.96;95309.22;5110165;28;20032;-75
2023/02/03 08:33:13;;;;;;;19.00;10.02;;;;;;;6.78;40.49;95327.69;5076261;28;20057;-75
2023/02/03 08:35:39;;;;;;;8.35;4.70;;;;;;;6.05;41.17;95256.25;5075986;28;20540;-75
2023/02/03 08:38:05;;;;;;;52.58;31.80;;;;;;;5.80;42.26;95298.88;5076170;28;20023;-75
2023/02/03 08:40:30;;;;;;;24.17;15.77;;;;;;;5.93;42.30;95334.25;5076243;28;20408;-75
2023/02/03 08:42:55;;;;;;;22.27;17.63;;;;;;;5.57;43.05;95330.22;5092832;28;20109;-75
2023/02/03 08:45:21;;;;;;;38.80;24.70;;;;;;;5.68;43.30;95348.50;5076178;28;20040;-75
2023/02/03 08:47:47;;;;;;;37.42;20.83;;;;;;;5.53;43.08;95332.16;5097217;28;20028;-75
2023/02/03 08:50:12;;;;;;;34.72;16.63;;;;;;;4.98;43.86;95264.75;5097093;28;20089;-75
2023/02/03 08:52:38;;;;;;;13.15;5.82;;;;;;;4.58;44.69;95247.13;5096936;28;20027;-75
2023/02/03 08:55:04;;;;;;;20.55;13.93;;;;;;;4.90;44.37;95254.88;5079931;28;20074;-75
2023/02/03 08:57:34;;;;;;;5.22;3.85;;;;;;;5.24;43.89;95333.75;5096916;28;20032;-75
2023/02/03 08:59:59;;;;;;;4.03;2.60;;;;;;;5.31;44.18;95355.69;5096661;28;20031;-75
2023/02/03 09:02:25;;;;;;;6.55;4.35;;;;;;;4.64;44.83;95269.94;5079866;28;20036;-75
2023/02/03 09:04:50;;;;;;;15.13;7.63;;;;;;;5.31;44.78;95363.41;5079760;28;20451;-75
2023/02/03 09:07:16;;;;;;;2.80;2.38;;;;;;;5.30;44.41;95381.53;5114926;28;20027;-74
2023/02/03 09:09:41;;;;;;;4.90;3.50;;;;;;;4.27;45.09;95265.06;5079603;28;20031;-75
2023/02/03 09:12:07;;;;;;;6.25;4.38;;;;;;;4.95;45.31;95349.91;5114782;28;20031;-75
2023/02/03 09:14:33;;;;;;;4.00;3.00;;;;;;;4.82;46.06;95326.53;5113457;28;20040;-75
2023/02/03 09:16:59;;;;;;;3.78;3.40;;;;;;;4.72;46.35;95310.75;5096358;28;20032;-75
2023/02/03 09:19:25;;;;;;;4.18;3.70;;;;;;;5.23;46.38;95359.56;5096387;28;20037;-75
2023/02/03 09:21:50;;;;;;;3.00;2.10;;;;;;;5.06;46.37;95337.28;5079392;28;20031;-75
2023/02/03 09:24:16;;;;;;;4.97;2.60;;;;;;;5.02;46.30;95346.94;5079283;28;20408;-75
2023/02/03 09:26:42;;;;;;;5.38;4.28;;;;;;;4.92;47.13;95346.56;5079370;28;20062;-75
2023/02/03 09:29:07;;;;;;;4.18;2.70;;;;;;;4.58;47.67;95241.16;5079335;28;20024;-75
2023/02/03 09:31:33;;;;;;;4.97;3.60;;;;;;;5.37;47.44;95347.59;5079254;28;20080;-75
2023/02/03 09:33:59;;;;;;;7.20;5.57;;;;;;;4.97;46.28;95312.03;5078712;28;20512;-75
2023/02/03 09:36:24;;;;;;;7.53;6.45;;;;;;;5.42;46.46;95359.44;5079353;28;20031;-75
2023/02/03 09:38:50;;;;;;;3.15;2.17;;;;;;;5.22;46.78;95370.81;5079109;28;20047;-75
2023/02/03 09:41:29;;;;;;;11.32;9.15;;;;;;;4.79;47.42;95373.88;5096082;28;20039;-75
2023/02/03 09:43:54;;;;;;;5.93;4.13;;;;;;;4.53;47.55;95370.03;5095805;28;20044;-75
2023/02/03 09:46:20;;;;;;;8.32;6.70;;;;;;;4.53;47.59;95376.91;5112908;28;20079;-75
2023/02/03 09:48:56;;;;;;;6.95;5.13;;;;;;;3.84;47.82;95292.88;5112706;28;20046;-75
2023/02/03 09:51:28;;;;;;;13.10;7.68;;;;;;;4.36;47.10;95375.19;5079350;28;20038;-75
2023/02/03 09:54:02;;;;;;;11.85;8.35;;;;;;;4.01;48.54;95362.28;5095605;28;20126;-75
2023/02/03 09:56:35;;;;;;;5.82;4.72;;;;;;;4.08;48.36;95360.28;5078657;28;20020;-75
2023/02/03 09:59:01;;;;;;;3.22;2.25;;;;;;;4.03;47.75;95333.03;5079218;28;20036;-75
2023/02/03 10:01:51;;;;;;;4.03;3.20;;;;;;;4.40;46.99;95369.81;5078758;28;20124;-75
2023/02/03 10:04:36;;;;;;;6.22;2.28;;;;;;;4.44;46.46;95371.31;5113907;27;20475;-75
2023/02/03 10:07:24;;;;;;;2.60;1.42;;;;;;;4.30;45.84;95360.88;5112363;28;20477;-75
2023/02/03 10:10:08;;;;;;;3.03;1.80;;;;;;;4.39;45.02;95324.41;5096212;28;20034;-75
2023/02/03 10:12:46;;;;;;;3.80;1.90;;;;;;;4.81;45.09;95353.19;5079115;28;20089;-76
2023/02/03 10:16:05;;;;;;;2.60;1.88;;;;;;;4.76;46.00;95360.31;5112423;28;20443;-75
2023/02/03 10:18:44;;;;;;;3.45;2.35;;;;;;;4.54;45.68;95337.41;5073735;28;20144;-75
2023/02/03 10:21:27;;;;;;;3.38;2.00;;;;;;;4.86;45.19;95354.59;5079121;28;20462;-75
2023/02/03 10:23:53;;;;;;;3.15;1.75;;;;;;;5.03;44.51;95350.34;5079068;28;20039;-75
2023/02/03 10:26:21;;;;;;;2.80;2.10;;;;;;;5.15;44.50;95344.53;5095161;28;20028;-75
2023/02/03 10:28:57;;;;;;;2.85;2.33;;;;;;;5.31;44.26;95363.41;5078299;28;20039;-75
2023/02/03 10:31:26;;;;;;;5.82;3.03;;;;;;;5.45;43.67;95354.94;5095144;28;20075;-76
2023/02/03 10:34:11;;;;;;;9.70;8.70;;;;;;;5.58;43.35;95343.06;5095212;28;20049;-75
2023/02/03 10:36:53;;;;;;;5.65;5.05;;;;;;;5.49;43.41;95338.41;5095249;28;20023;-75
2023/02/03 10:39:48;;;;;;;3.80;2.78;;;;;;;5.75;42.60;95346.44;5112054;28;20115;-75
2023/02/03 10:42:14;;;;;;;4.90;4.10;;;;;;;5.58;42.66;95329.34;5110759;28;20043;-75
2023/02/03 10:44:50;;;;;;;3.80;2.67;;;;;;;5.57;42.08;95331.09;5077981;28;20120;-75
2023/02/03 10:47:50;;;;;;;6.72;3.00;;;;;;;5.80;41.17;95334.97;5095082;28;20042;-76
2023/02/03 10:50:18;;;;;;;4.43;2.40;;;;;;;5.97;39.20;95321.16;5109644;28;20417;-75
2023/02/03 10:52:44;;;;;;;4.18;2.85;;;;;;;6.13;40.13;95330.59;5094885;28;20024;-76
2023/02/03 10:55:24;;;;;;;3.03;2.40;;;;;;;6.20;39.55;95335.31;5077698;28;20069;-75
2023/02/03 10:57:51;;;;;;;4.97;2.63;;;;;;;6.35;39.55;95348.25;5111343;28;20062;-76
2023/02/03 11:00:23;;;;;;;5.07;4.15;;;;;;;6.06;40.59;95335.28;5094888;28;20036;-75
2023/02/03 11:03:24;;;;;;;5.60;4.30;;;;;;;5.95;41.10;95328.13;5094389;28;20051;-75
2023/02/03 11:06:15;;;;;;;11.05;9.50;;;;;;;5.83;41.40;95329.63;5056234;28;20079;-75
2023/02/03 11:08:43;;;;;;;4.10;2.77;;;;;;;5.36;42.23;95325.34;5092331;28;20031;-75
2023/02/03 11:11:12;;;;;;;4.93;2.50;;;;;;;5.18;42.07;95334.06;5094453;28;20023;-75
2023/02/03 11:13:38;;;;;;;3.25;2.22;;;;;;;4.66;42.80;95251.88;5077839;28;20024;-75
2023/02/03 11:16:04;;;;;;;3.60;2.88;;;;;;;5.15;42.87;95331.63;5094028;28;20508;-75
2023/02/03 11:18:46;;;;;;;3.30;2.22;;;;;;;4.97;41.83;95312.84;5111103;28;20098;-75
2023/02/03 11:21:16;;;;;;;4.20;2.95;;;;;;;4.97;41.59;95322.34;5094307;28;20023;-75
2023/02/03 11:23:53;;;;;;;5.35;4.28;;;;;;;4.40;41.28;95236.06;5094222;28;20023;-75
2023/02/03 11:26:21;;;;;;;4.63;2.47;;;;;;;4.98;41.45;95299.06;5078123;28;20471;-75
2023/02/03 11:28:49;;;;;;;3.33;2.13;;;;;;;4.89;40.08;95308.09;5077127;28;20401;-75
2023/02/03 11:31:20;;;;;;;4.72;3.13;;;;;;;4.82;40.83;95282.75;5077109;28;20034;-76
2023/02/03 11:33:47;;;;;;;4.00;2.35;;;;;;;5.12;40.47;95285.44;5094035;28;20070;-75
2023/02/03 11:36:13;;;;;;;2.90;2.00;;;;;;;4.93;40.92;95281.31;5076764;28;20044;-75
2023/02/03 11:38:41;;;;;;;4.88;1.80;;;;;;;5.00;41.36;95299.81;5093806;28;20107;-75
2023/02/03 11:41:15;;;;;;;3.60;2.25;;;;;;;4.76;42.35;95295.97;5094069;28;20027;-75
2023/02/03 11:43:40;;;;;;;4.32;2.10;;;;;;;4.15;40.75;95200.47;5094624;28;20031;-75
2023/02/03 11:46:08;;;;;;;3.35;1.92;;;;;;;4.62;40.81;95294.09;5093620;28;20059;-75
2023/02/03 11:48:34;;;;;;;18.17;9.35;;;;;;;4.43;40.86;95287.34;5094062;28;20027;-75
2023/02/03 11:51:32;;;;;;;7.85;5.20;;;;;;;4.41;41.42;95275.47;5110805;28;20565;-75
2023/02/03 11:54:42;;;;;;;6.82;4.78;;;;;;;4.66;40.46;95272.47;5109860;28;20047;-75
2023/02/03 11:57:40;;;;;;;3.40;2.70;;;;;;;4.99;40.66;95274.16;5094649;28;20039;-75
2023/02/03 12:00:20;;;;;;;2.95;2.25;;;;;;;5.18;40.38;95264.50;5110536;28;20042;-75
2023/02/03 12:03:04;;;;;;;3.40;2.90;;;;;;;5.26;40.17;95272.66;5110215;28;20051;-75
2023/02/03 12:05:58;;;;;;;3.70;2.33;;;;;;;5.36;40.58;95273.00;5110088;28;20290;-75
2023/02/03 12:08:51;;;;;;;3.95;3.55;;;;;;;5.73;40.59;95286.41;5110146;28;20626;-75
2023/02/03 12:11:16;;;;;;;5.30;3.88;;;;;;;5.86;39.63;95289.97;5110213;28;20031;-75
2023/02/03 12:14:10;;;;;;;2.42;1.67;;;;;;;5.49;38.25;95284.28;5110067;28;20024;-75
2023/02/03 12:16:47;;;;;;;5.75;3.85;;;;;;;5.46;38.48;95281.88;5110332;28;20027;-75
2023/02/03 12:19:22;;;;;;;5.28;3.40;;;;;;;5.39;38.82;95272.81;5111282;28;20035;-75